Centralia, Missouri
Current Conditions -  °F | °C
As of 2:54 AM on Wednesday 26 Nov 2014 (Local Time) from KCOU Reporting Station
Scattered Clouds Scattered Clouds  
Wind Chill: 19°   Ceiling: Unl
Heat Index: 28°   Visibility: 10mi
Dew Point: 19°   Wind: 9mph
Humidity: 69%   Direction: 120°ESE
Pressure: 30.02"   Gusts: NA
Location:  39.21°N, 92.14°W
Report Text: KCOU 260854Z AUTO 12008KT 10SM SCT120 M02/M07 A3002 RMK AO2 SLP171 T10221072 58022
Loading
Personal Weather Stations






























Interactive Weather Map New forecast layout! Learn more

10-Day Weather Forecast

Advertisements
Track Severe Weather on mobile